Time;durP1;ratioP1;P1;durP2;ratioP2;P2;SDS_P1;SDS_P2;PMS_P1;PMS_P2;Temp;Humidity;BMP_temperature;BMP_pressure;BME280_temperature;BME280_humidity;BME280_pressure;Samples;Min_cycle;Max_cycle;Signal;HPM_P1;HPM_P2
2021/01/07 00:01:25;;;;;;;29.50;17.05;;;;;;;3.17;75.12;100196.09;4993333;28;20074;-84
2021/01/07 00:03:53;;;;;;;31.02;17.02;;;;;;;3.16;75.01;100189.13;4998550;28;20050;-83
2021/01/07 00:06:19;;;;;;;29.63;16.17;;;;;;;3.21;74.99;100188.19;4998023;28;20054;-84
2021/01/07 00:08:46;;;;;;;28.50;16.63;;;;;;;3.18;74.92;100189.97;5000905;28;20091;-83
2021/01/07 00:11:12;;;;;;;27.63;16.33;;;;;;;3.18;74.65;100195.19;4997823;28;20054;-85
2021/01/07 00:13:43;;;;;;;30.25;16.35;;;;;;;3.12;74.80;100194.47;5001814;28;20525;-83
2021/01/07 00:16:09;;;;;;;29.88;16.88;;;;;;;3.15;74.24;100194.38;4996867;28;20060;-84
2021/01/07 00:18:37;;;;;;;28.05;16.67;;;;;;;3.18;73.54;100208.28;4986534;28;20058;-84
2021/01/07 00:21:03;;;;;;;30.13;17.23;;;;;;;3.17;73.60;100206.56;4985325;28;20059;-85
2021/01/07 00:23:30;;;;;;;32.53;17.92;;;;;;;3.18;73.33;100199.56;4993498;28;20523;-85
2021/01/07 00:25:56;;;;;;;30.23;17.20;;;;;;;3.16;73.99;100201.34;4994831;28;20382;-85
2021/01/07 00:28:25;;;;;;;30.17;17.30;;;;;;;3.14;73.46;100198.78;4997060;28;20051;-85
2021/01/07 00:30:52;;;;;;;33.33;18.35;;;;;;;3.13;73.56;100199.69;5009344;28;20054;-84
2021/01/07 00:33:20;;;;;;;31.60;17.40;;;;;;;3.07;73.94;100199.78;5011469;28;20133;-85
2021/01/07 00:35:50;;;;;;;30.33;18.27;;;;;;;3.03;74.09;100198.13;4997408;28;20112;-85
2021/01/07 00:38:16;;;;;;;30.23;18.30;;;;;;;3.01;74.50;100199.03;4990955;28;20046;-85
2021/01/07 00:40:43;;;;;;;32.05;17.88;;;;;;;3.00;75.07;100199.91;4997256;28;20412;-85
2021/01/07 00:43:11;;;;;;;34.08;17.80;;;;;;;2.99;75.19;100204.28;4997285;28;20050;-85
2021/01/07 00:45:37;;;;;;;33.08;18.15;;;;;;;3.02;74.58;100199.00;4997087;28;20046;-84
2021/01/07 00:48:05;;;;;;;27.02;15.32;;;;;;;3.04;73.49;100204.22;4995602;28;20193;-84
2021/01/07 00:50:31;;;;;;;26.98;15.43;;;;;;;3.02;73.18;100206.84;4991978;28;21336;-84
2021/01/07 00:52:58;;;;;;;29.63;17.45;;;;;;;3.00;73.58;100208.63;4997714;28;20042;-84
2021/01/07 00:55:24;;;;;;;26.70;15.88;;;;;;;3.00;72.76;100207.78;4998117;28;20058;-84
2021/01/07 00:57:52;;;;;;;28.85;15.85;;;;;;;3.01;73.25;100202.50;5004639;28;20050;-84
2021/01/07 01:00:19;;;;;;;28.58;16.42;;;;;;;3.01;72.39;100199.91;4997848;28;20051;-84
2021/01/07 01:02:46;;;;;;;29.15;16.90;;;;;;;3.00;72.39;100206.00;5007185;28;20050;-83
2021/01/07 01:05:13;;;;;;;28.02;15.60;;;;;;;3.03;72.23;100208.56;5005007;28;20081;-84
2021/01/07 01:07:40;;;;;;;27.85;16.33;;;;;;;3.06;72.51;100218.13;5006050;28;20054;-83
2021/01/07 01:10:10;;;;;;;28.27;16.27;;;;;;;3.06;72.04;100216.38;5011055;28;20045;-84
2021/01/07 01:12:39;;;;;;;28.73;16.52;;;;;;;3.01;72.26;100215.59;4997343;28;20045;-84
2021/01/07 01:15:09;;;;;;;30.75;17.60;;;;;;;3.06;73.18;100219.00;5012847;28;20057;-85
2021/01/07 01:17:36;;;;;;;31.85;17.90;;;;;;;3.07;73.42;100214.63;5007597;28;20069;-85
2021/01/07 01:20:11;;;;;;;32.38;18.65;;;;;;;3.04;73.60;100226.00;5008884;28;20037;-84
2021/01/07 01:22:38;;;;;;;34.03;18.80;;;;;;;3.04;74.11;100220.78;5011586;28;20038;-85
2021/01/07 01:25:11;;;;;;;33.22;18.73;;;;;;;3.01;73.88;100214.72;5003452;28;20112;-84
2021/01/07 01:27:41;;;;;;;37.40;18.80;;;;;;;2.97;74.00;100213.09;4999476;28;20090;-85
2021/01/07 01:30:13;;;;;;;34.25;19.42;;;;;;;3.02;74.36;100219.94;5014093;28;20450;-84
2021/01/07 01:32:42;;;;;;;33.88;19.08;;;;;;;2.99;74.48;100217.38;5017433;28;20034;-85
2021/01/07 01:35:11;;;;;;;33.83;18.70;;;;;;;3.02;73.50;100221.69;5013651;28;20038;-85
2021/01/07 01:37:44;;;;;;;30.90;17.48;;;;;;;3.04;73.58;100223.38;5011783;28;20094;-85
2021/01/07 01:40:13;;;;;;;29.25;16.58;;;;;;;3.01;73.62;100220.81;5016483;28;20061;-85
2021/01/07 01:42:41;;;;;;;27.77;16.15;;;;;;;2.99;73.00;100222.59;5002427;28;20054;-85
2021/01/07 01:45:10;;;;;;;26.38;15.48;;;;;;;2.99;72.06;100222.59;5007272;28;20050;-85
2021/01/07 01:47:36;;;;;;;26.55;14.93;;;;;;;2.97;72.48;100219.19;5012315;28;20117;-85
2021/01/07 01:50:04;;;;;;;28.65;16.30;;;;;;;2.99;71.63;100214.75;5013803;28;20035;-84
2021/01/07 01:52:31;;;;;;;21.08;12.88;;;;;;;2.99;71.14;100219.97;5014861;28;20110;-84
2021/01/07 01:54:59;;;;;;;19.33;12.15;;;;;;;2.93;70.72;100222.72;5033916;28;20077;-85
2021/01/07 01:57:28;;;;;;;21.00;12.85;;;;;;;2.91;70.03;100221.91;4995419;28;20054;-85
2021/01/07 01:59:56;;;;;;;18.83;11.43;;;;;;;3.03;68.46;100226.88;4998933;28;20047;-85
2021/01/07 02:02:26;;;;;;;16.73;10.85;;;;;;;2.99;69.07;100221.78;4995895;28;20042;-85
2021/01/07 02:04:52;;;;;;;17.30;10.68;;;;;;;2.97;69.24;100220.94;4997144;28;20054;-84
2021/01/07 02:07:25;;;;;;;16.30;10.30;;;;;;;2.97;68.61;100220.94;4994856;28;20061;-85
2021/01/07 02:09:52;;;;;;;17.42;10.25;;;;;;;2.95;68.78;100234.03;4989036;28;20058;-85
2021/01/07 02:12:20;;;;;;;18.00;10.95;;;;;;;2.93;69.14;100227.09;4999481;28;20205;-85
2021/01/07 02:14:47;;;;;;;17.48;11.20;;;;;;;2.97;69.29;100221.78;4997266;28;20038;-84
2021/01/07 02:17:16;;;;;;;26.58;15.18;;;;;;;3.01;70.35;100223.44;5017405;28;20046;-84
2021/01/07 02:19:43;;;;;;;30.10;16.63;;;;;;;3.00;70.58;100220.84;5001870;28;20051;-84
2021/01/07 02:22:12;;;;;;;30.60;17.77;;;;;;;2.98;71.33;100215.69;4998013;28;20041;-84
2021/01/07 02:24:38;;;;;;;30.55;17.27;;;;;;;2.96;71.96;100219.22;5010458;28;20053;-85
2021/01/07 02:27:06;;;;;;;32.92;18.70;;;;;;;2.91;71.71;100214.06;5003606;28;20125;-85
2021/01/07 02:29:34;;;;;;;31.20;16.63;;;;;;;2.95;72.62;100214.88;4997943;28;20061;-84
2021/01/07 02:32:01;;;;;;;31.27;17.92;;;;;;;2.95;71.96;100209.63;4998595;28;20046;-85
2021/01/07 02:34:28;;;;;;;30.70;17.95;;;;;;;2.97;72.30;100213.09;4979805;28;20042;-85
2021/01/07 02:36:55;;;;;;;30.35;17.13;;;;;;;2.90;72.49;100214.94;4996569;28;20058;-85
2021/01/07 02:39:21;;;;;;;30.45;18.27;;;;;;;2.90;72.32;100214.94;4997889;28;20050;-84
2021/01/07 02:41:51;;;;;;;32.65;18.02;;;;;;;2.88;72.67;100208.00;4996974;28;20054;-85
2021/01/07 02:44:18;;;;;;;32.80;18.85;;;;;;;2.86;72.74;100204.56;5008878;28;20061;-85
2021/01/07 02:46:44;;;;;;;30.02;17.10;;;;;;;2.90;72.73;100204.47;4995929;28;20027;-83
2021/01/07 02:49:11;;;;;;;30.35;18.17;;;;;;;2.92;72.22;100201.84;5008468;28;20046;-86
2021/01/07 02:51:37;;;;;;;30.33;18.00;;;;;;;2.90;71.80;100203.63;5002782;28;20052;-83
2021/01/07 02:54:04;;;;;;;29.52;16.60;;;;;;;2.87;72.18;100201.91;5004204;28;20052;-85
2021/01/07 02:56:31;;;;;;;29.17;17.02;;;;;;;2.92;71.69;100200.09;5002151;28;20088;-85
2021/01/07 02:58:58;;;;;;;30.52;16.88;;;;;;;2.94;71.64;100200.94;5002289;28;20077;-85
2021/01/07 03:01:24;;;;;;;28.33;15.80;;;;;;;2.96;71.76;100207.00;4999076;28;20101;-85
2021/01/07 03:03:50;;;;;;;26.13;15.25;;;;;;;2.86;71.44;100187.13;5003321;28;20046;-85
2021/01/07 03:06:17;;;;;;;30.77;16.27;;;;;;;2.92;71.00;100199.22;5022396;28;20046;-85
2021/01/07 03:08:43;;;;;;;25.65;15.10;;;;;;;2.87;71.28;100199.31;5010446;28;20038;-85
2021/01/07 03:11:10;;;;;;;28.05;15.65;;;;;;;2.83;71.59;100204.63;5000505;28;20058;-85
2021/01/07 03:13:37;;;;;;;26.52;15.10;;;;;;;2.85;71.20;100197.59;5007098;28;20081;-86
2021/01/07 03:16:04;;;;;;;27.55;15.27;;;;;;;2.81;71.23;100199.44;5020994;28;20074;-85
2021/01/07 03:18:30;;;;;;;25.42;14.30;;;;;;;2.83;71.74;100193.25;5004941;28;20068;-86
2021/01/07 03:20:56;;;;;;;22.73;14.05;;;;;;;2.83;71.03;100187.19;4994297;28;20054;-86
2021/01/07 03:23:23;;;;;;;25.90;14.85;;;;;;;2.79;71.45;100182.91;4998321;28;20042;-86
2021/01/07 03:25:54;;;;;;;27.90;15.25;;;;;;;2.78;71.08;100183.78;5006096;28;20050;-86
2021/01/07 03:28:21;;;;;;;24.60;14.35;;;;;;;2.73;72.08;100181.25;5000785;28;20069;-86
2021/01/07 03:30:48;;;;;;;27.65;14.30;;;;;;;2.71;71.63;100179.56;5004970;28;20094;-85
2021/01/07 03:33:14;;;;;;;24.05;14.18;;;;;;;2.70;71.81;100185.66;5011332;28;20133;-86
2021/01/07 03:35:41;;;;;;;24.25;13.10;;;;;;;2.72;71.63;100179.53;5008151;28;20096;-85
2021/01/07 03:38:07;;;;;;;21.63;13.52;;;;;;;2.73;71.92;100175.16;5007757;28;20039;-85
2021/01/07 03:40:35;;;;;;;22.98;12.75;;;;;;;2.74;71.08;100176.88;5004332;28;20058;-85
2021/01/07 03:43:01;;;;;;;24.65;14.80;;;;;;;2.72;71.41;100171.69;5014169;28;20035;-85
2021/01/07 03:45:28;;;;;;;23.02;12.65;;;;;;;2.74;71.96;100174.28;5020286;28;20133;-84
2021/01/07 03:47:57;;;;;;;22.00;12.38;;;;;;;2.73;71.07;100167.31;5017741;28;20047;-85
2021/01/07 03:50:23;;;;;;;19.77;11.73;;;;;;;2.71;71.14;100166.47;5012413;28;20118;-85
2021/01/07 03:52:50;;;;;;;22.33;13.05;;;;;;;2.71;70.74;100177.81;5004624;28;20114;-85
2021/01/07 03:55:23;;;;;;;19.00;11.27;;;;;;;2.65;70.48;100164.00;4999034;28;20039;-85
2021/01/07 03:57:50;;;;;;;22.27;11.50;;;;;;;2.72;70.13;100170.81;5004047;28;20482;-85
2021/01/07 04:00:18;;;;;;;19.30;11.80;;;;;;;2.75;70.24;100173.38;4997665;28;20051;-85
2021/01/07 04:02:46;;;;;;;19.80;11.38;;;;;;;2.78;70.50;100181.19;4998275;28;20039;-85
2021/01/07 04:05:14;;;;;;;20.58;11.00;;;;;;;2.73;70.40;100159.47;4998798;28;20042;-84
2021/01/07 04:07:41;;;;;;;17.33;11.15;;;;;;;2.73;70.40;100175.16;4996159;28;20082;-85
2021/01/07 04:10:09;;;;;;;19.33;11.52;;;;;;;2.66;70.83;100174.44;4993090;28;20057;-86
2021/01/07 04:12:37;;;;;;;20.90;12.02;;;;;;;2.69;70.80;100181.34;5015881;28;20417;-85
2021/01/07 04:15:06;;;;;;;20.40;12.20;;;;;;;2.64;71.25;100178.81;4995699;28;20043;-85
2021/01/07 04:17:33;;;;;;;20.75;11.98;;;;;;;2.65;71.23;100179.69;4994038;28;20117;-85
2021/01/07 04:19:59;;;;;;;20.70;12.85;;;;;;;2.69;70.72;100184.81;5000314;28;20489;-85
2021/01/07 04:22:28;;;;;;;20.02;11.80;;;;;;;2.69;70.89;100182.19;5001137;28;20061;-85
2021/01/07 04:24:54;;;;;;;23.58;13.45;;;;;;;2.66;70.77;100186.66;5004177;28;20050;-85
2021/01/07 04:27:20;;;;;;;22.42;13.27;;;;;;;2.60;71.21;100178.91;4996265;28;20050;-86
2021/01/07 04:29:47;;;;;;;23.60;13.45;;;;;;;2.56;71.91;100178.09;5007552;28;20051;-84
2021/01/07 04:32:13;;;;;;;23.83;13.23;;;;;;;2.56;72.04;100180.69;4999691;28;20054;-85
2021/01/07 04:34:40;;;;;;;23.08;14.10;;;;;;;2.61;71.65;100178.00;4994728;28;20482;-85
2021/01/07 04:37:06;;;;;;;26.98;14.52;;;;;;;2.61;71.75;100184.09;4990558;28;20066;-85
2021/01/07 04:39:33;;;;;;;27.50;14.65;;;;;;;2.64;71.62;100177.97;5004483;28;20042;-85
2021/01/07 04:42:00;;;;;;;24.25;13.05;;;;;;;2.65;71.40;100179.69;4988161;28;20068;-85
2021/01/07 04:44:28;;;;;;;23.70;13.65;;;;;;;2.63;71.00;100178.84;4995992;28;20045;-85
2021/01/07 04:47:09;;;;;;;23.70;14.10;;;;;;;2.63;71.30;100177.09;4994698;28;20042;-85
2021/01/07 04:49:36;;;;;;;24.23;13.57;;;;;;;2.64;70.75;100173.59;4996887;28;20058;-85
2021/01/07 04:52:03;;;;;;;25.00;14.02;;;;;;;2.63;71.33;100176.22;4997672;28;20050;-85
2021/01/07 04:54:29;;;;;;;21.73;12.60;;;;;;;2.57;71.22;100168.50;4995574;28;20057;-85
2021/01/07 04:56:56;;;;;;;24.52;12.68;;;;;;;2.59;70.89;100169.31;5007267;28;20105;-85
2021/01/07 04:59:22;;;;;;;21.88;12.93;;;;;;;2.54;71.25;100160.69;5012139;28;20062;-85
2021/01/07 05:01:53;;;;;;;25.77;12.95;;;;;;;2.61;70.18;100164.94;4995454;28;20047;-85
2021/01/07 05:04:21;;;;;;;22.58;12.27;;;;;;;2.55;71.60;100167.66;5009794;28;20125;-85
2021/01/07 05:06:48;;;;;;;22.35;12.25;;;;;;;2.52;71.71;100171.19;5012378;28;20142;-84
2021/01/07 05:09:14;;;;;;;22.27;12.27;;;;;;;2.51;71.94;100160.78;4995964;28;20051;-85
2021/01/07 05:11:41;;;;;;;23.23;13.80;;;;;;;2.61;71.35;100155.34;5005767;28;20053;-85
2021/01/07 05:14:12;;;;;;;22.55;12.85;;;;;;;2.61;71.31;100163.19;4992349;28;20478;-84
2021/01/07 05:16:38;;;;;;;24.40;13.85;;;;;;;2.65;71.92;100171.84;4999473;28;20045;-85
2021/01/07 05:19:08;;;;;;;25.92;13.07;;;;;;;2.60;72.30;100158.84;5002507;28;20141;-85
2021/01/07 05:21:35;;;;;;;24.02;13.07;;;;;;;2.58;72.68;100158.00;5000903;28;20061;-85
2021/01/07 05:24:02;;;;;;;27.55;15.10;;;;;;;2.54;72.06;100171.16;5003634;28;20046;-85
2021/01/07 05:26:29;;;;;;;29.67;15.10;;;;;;;2.51;73.25;100160.78;5000431;28;20069;-85
2021/01/07 05:28:58;;;;;;;28.90;15.25;;;;;;;2.56;72.99;100162.41;5009074;28;20054;-84
2021/01/07 05:31:26;;;;;;;26.65;14.98;;;;;;;2.52;72.97;100158.09;5007114;28;20117;-85
2021/01/07 05:33:54;;;;;;;26.75;14.55;;;;;;;2.50;72.99;100165.16;4999746;28;20047;-84
2021/01/07 05:36:24;;;;;;;28.13;14.75;;;;;;;2.45;73.66;100162.59;5022588;28;20165;-85
2021/01/07 05:38:55;;;;;;;25.88;14.40;;;;;;;2.43;74.15;100166.13;5011731;28;20046;-84
2021/01/07 05:41:28;;;;;;;25.42;14.77;;;;;;;2.45;73.72;100164.34;5007636;28;20058;-84
2021/01/07 05:44:03;;;;;;;25.83;14.75;;;;;;;2.45;73.60;100162.59;5013812;28;20048;-85
2021/01/07 05:46:31;;;;;;;24.92;14.43;;;;;;;2.44;74.21;100166.09;5006468;28;20046;-85
2021/01/07 05:48:58;;;;;;;26.85;14.35;;;;;;;2.46;73.48;100172.16;5005786;28;20043;-85
2021/01/07 05:51:29;;;;;;;23.98;13.20;;;;;;;2.43;73.72;100164.38;5007074;28;20108;-85
2021/01/07 05:53:58;;;;;;;26.00;13.82;;;;;;;2.47;73.26;100158.22;4991024;28;20046;-85
2021/01/07 05:56:25;;;;;;;26.88;14.35;;;;;;;2.55;73.45;100165.91;4994669;28;20054;-84
2021/01/07 05:58:53;;;;;;;23.25;13.68;;;;;;;2.55;73.58;100165.03;5002273;28;20054;-85
2021/01/07 06:01:22;;;;;;;24.50;13.15;;;;;;;2.56;72.14;100165.00;4999289;28;20046;-84
2021/01/07 06:03:51;;;;;;;24.85;13.27;;;;;;;2.61;71.73;100164.94;5000103;28;20068;-84
2021/01/07 06:06:23;;;;;;;23.27;12.18;;;;;;;2.59;72.47;100161.50;4991013;28;20118;-85
2021/01/07 06:08:57;;;;;;;25.55;13.80;;;;;;;2.59;72.22;100164.97;4990938;28;20054;-84
2021/01/07 06:11:25;;;;;;;23.80;13.63;;;;;;;2.58;72.60;100163.25;5000475;28;20102;-84
2021/01/07 06:13:53;;;;;;;25.77;13.73;;;;;;;2.57;72.96;100155.41;4995834;28;20755;-85
2021/01/07 06:16:22;;;;;;;31.67;14.10;;;;;;;2.56;72.90;100158.91;5003883;28;20046;-84
2021/01/07 06:18:48;;;;;;;23.95;13.48;;;;;;;2.53;73.02;100158.97;4997450;28;20046;-84
2021/01/07 06:21:17;;;;;;;26.02;14.45;;;;;;;2.45;73.60;100165.22;4994723;28;20100;-84
2021/01/07 06:23:47;;;;;;;25.92;14.65;;;;;;;2.46;73.75;100164.31;5001214;28;20513;-83
2021/01/07 06:26:21;;;;;;;;;;;;;;;2.44;73.75;100165.25;4998674;28;20061;-84
2021/01/07 06:28:59;;;;;;;32.15;16.15;;;;;;;2.39;74.83;100164.44;4998759;28;20393;-83
2021/01/07 06:31:37;;;;;;;29.52;16.27;;;;;;;2.36;75.00;100165.34;4993842;28;20082;-84
2021/01/07 06:34:04;;;;;;;27.50;16.02;;;;;;;2.38;75.42;100160.97;4996275;28;20046;-83
2021/01/07 06:36:41;;;;;;;33.33;17.05;;;;;;;2.38;75.79;100160.09;5003176;28;20038;-84
2021/01/07 06:39:09;;;;;;;31.45;16.33;;;;;;;2.37;76.31;100158.38;4999662;28;20052;-84
2021/01/07 06:41:36;;;;;;;32.83;17.05;;;;;;;2.41;76.87;100158.31;4998661;28;20064;-84
2021/01/07 06:44:04;;;;;;;31.58;16.98;;;;;;;2.35;76.48;100165.41;5001906;28;20054;-84
2021/01/07 06:46:57;;;;;;;34.80;18.13;;;;;;;2.35;76.72;100161.06;5008276;28;20089;-84
2021/01/07 06:49:27;;;;;;;34.65;18.73;;;;;;;2.27;77.56;100154.22;5006094;28;20046;-85
2021/01/07 06:52:03;;;;;;;36.90;18.10;;;;;;;2.26;77.97;100155.97;5004993;28;20263;-85
2021/01/07 06:54:37;;;;;;;35.63;18.95;;;;;;;2.26;77.94;100158.56;4999674;28;20047;-85
2021/01/07 06:57:11;;;;;;;37.42;19.73;;;;;;;2.26;78.69;100160.31;5008808;28;20057;-86
2021/01/07 07:00:05;;;;;;;36.03;18.15;;;;;;;2.29;78.68;100158.53;5006250;28;20046;-85
2021/01/07 07:02:32;;;;;;;35.78;18.83;;;;;;;2.37;77.73;100159.25;5004580;28;20066;-84
2021/01/07 07:05:06;;;;;;;35.55;18.88;;;;;;;2.37;77.83;100159.25;5000974;28;20054;-85
2021/01/07 07:07:54;;;;;;;39.78;19.58;;;;;;;2.36;78.25;100167.97;4997157;28;20061;-85
2021/01/07 07:10:23;;;;;;;36.67;18.85;;;;;;;2.31;78.72;100164.59;5001915;28;20114;-85
2021/01/07 07:12:52;;;;;;;37.13;19.48;;;;;;;2.25;78.50;100164.69;5000894;28;20022;-85
2021/01/07 07:15:22;;;;;;;37.60;18.88;;;;;;;2.25;78.64;100162.06;5014405;28;20034;-85
2021/01/07 07:17:54;;;;;;;40.38;19.90;;;;;;;2.26;79.17;100165.56;5006048;28;20053;-85
2021/01/07 07:20:24;;;;;;;38.97;19.63;;;;;;;2.28;78.90;100169.88;5002533;28;20129;-85
2021/01/07 07:22:53;;;;;;;35.08;18.40;;;;;;;2.32;79.09;100170.69;5000145;28;20050;-84
2021/01/07 07:25:25;;;;;;;36.38;18.98;;;;;;;2.30;79.23;100159.41;5007206;28;20102;-84
2021/01/07 07:27:54;;;;;;;;;;;;;;;2.34;78.85;100168.91;5013945;28;20050;-84
2021/01/07 07:30:28;;;;;;;36.88;18.52;;;;;;;2.36;78.83;100169.75;5015019;28;19922;-85
2021/01/07 07:32:57;;;;;;;38.92;20.13;;;;;;;2.29;79.13;100155.06;5015036;28;20417;-85
2021/01/07 07:35:28;;;;;;;37.47;19.00;;;;;;;2.42;78.96;100180.09;5020880;28;20053;-84
2021/01/07 07:37:57;;;;;;;36.42;19.02;;;;;;;2.43;78.97;100174.84;5013984;28;20045;-84
2021/01/07 07:40:43;;;;;;;36.70;19.35;;;;;;;2.41;79.14;100178.34;5009337;28;20038;-84
2021/01/07 07:43:10;;;;;;;40.35;20.17;;;;;;;2.37;78.46;100180.16;5009424;28;20062;-85
2021/01/07 07:45:39;;;;;;;38.20;19.23;;;;;;;2.35;79.05;100186.31;5020089;28;20050;-85
2021/01/07 07:48:08;;;;;;;36.33;19.73;;;;;;;2.32;79.54;100187.22;5031343;28;20050;-84
2021/01/07 07:50:36;;;;;;;37.65;18.98;;;;;;;2.40;78.94;100185.31;5012947;28;20030;-84
2021/01/07 07:53:11;;;;;;;33.17;18.08;;;;;;;2.50;78.32;100186.06;5020878;28;20058;-84
2021/01/07 07:55:44;;;;;;;35.47;18.00;;;;;;;2.55;77.84;100185.94;5022856;28;20065;-84
2021/01/07 07:58:17;;;;;;;35.00;17.38;;;;;;;2.54;77.42;100192.06;5017335;28;20058;-84
2021/01/07 08:00:55;;;;;;;35.92;18.55;;;;;;;2.51;77.97;100181.69;5002453;28;20054;-84
2021/01/07 08:03:24;;;;;;;35.42;18.85;;;;;;;2.44;78.68;100181.78;5016427;28;20062;-84
2021/01/07 08:05:51;;;;;;;37.92;18.35;;;;;;;2.43;78.57;100198.34;5005716;28;20069;-86
2021/01/07 08:08:43;;;;;;;34.97;17.80;;;;;;;2.40;78.16;100197.53;4999490;28;20042;-86
2021/01/07 08:11:19;;;;;;;35.03;17.92;;;;;;;2.37;78.63;100195.81;5007683;28;20118;-85
2021/01/07 08:13:53;;;;;;;37.30;18.55;;;;;;;2.36;78.24;100204.56;5010201;28;20132;-86
2021/01/07 08:16:23;;;;;;;;;;;;;;;2.39;79.10;100204.50;5000383;28;20057;-85
2021/01/07 08:18:51;;;;;;;34.17;17.20;;;;;;;2.34;78.37;100195.91;5000907;28;19936;-85
2021/01/07 08:21:18;;;;;;;34.65;17.48;;;;;;;2.38;78.89;100197.56;5012179;28;20085;-84
2021/01/07 08:23:44;;;;;;;32.92;16.92;;;;;;;2.43;79.09;100203.56;5008342;28;20074;-85
2021/01/07 08:26:27;;;;;;;32.65;17.00;;;;;;;2.49;78.53;100205.25;5002849;28;20054;-86
2021/01/07 08:28:54;;;;;;;32.33;16.75;;;;;;;2.47;78.50;100202.66;5007660;28;20078;-85
2021/01/07 08:31:29;;;;;;;29.95;16.52;;;;;;;2.50;78.24;100214.81;5018799;28;20046;-86
2021/01/07 08:34:02;;;;;;;33.00;17.00;;;;;;;2.55;79.10;100217.31;5002903;28;20062;-86
2021/01/07 08:36:33;;;;;;;31.10;16.58;;;;;;;2.58;78.91;100214.66;5002961;28;20065;-87
2021/01/07 08:39:00;;;;;;;35.58;18.77;;;;;;;2.58;78.82;100210.28;5002738;28;20050;-86
2021/01/07 08:41:47;;;;;;;33.55;17.00;;;;;;;2.56;78.21;100211.19;5006265;28;20479;-86
2021/01/07 08:44:15;;;;;;;33.10;17.20;;;;;;;2.61;79.11;100212.84;5004469;28;20039;-87
2021/01/07 08:46:44;;;;;;;32.08;16.52;;;;;;;2.56;78.16;100190.28;5008187;28;20137;-86
2021/01/07 08:49:18;;;;;;;34.80;16.90;;;;;;;2.70;77.99;100211.81;5009023;28;20046;-85
2021/01/07 08:51:50;;;;;;;34.28;16.23;;;;;;;2.66;78.49;100220.63;5009978;28;20046;-84
2021/01/07 08:54:23;;;;;;;34.10;16.98;;;;;;;2.60;78.78;100207.66;5008660;28;20046;-84
2021/01/07 08:56:52;;;;;;;31.27;16.55;;;;;;;2.60;79.14;100213.75;5012714;28;20043;-86
2021/01/07 08:59:32;;;;;;;30.65;15.77;;;;;;;2.61;78.65;100218.09;5010853;28;20057;-85
2021/01/07 09:02:02;;;;;;;32.05;16.13;;;;;;;2.64;78.99;100218.03;5013872;28;20057;-86
2021/01/07 09:04:39;;;;;;;31.50;15.98;;;;;;;2.66;78.82;100211.03;5023581;28;20068;-86
2021/01/07 09:07:13;;;;;;;30.48;15.55;;;;;;;2.60;78.67;100223.34;5009397;28;20050;-84
2021/01/07 09:09:52;;;;;;;32.92;16.15;;;;;;;2.62;81.28;100221.56;5010562;28;20545;-86
2021/01/07 09:12:28;;;;;;;32.17;16.67;;;;;;;2.66;79.98;100212.78;4990499;28;20046;-86
2021/01/07 09:14:56;;;;;;;30.85;15.55;;;;;;;2.62;79.38;100224.19;4998741;28;20137;-86
2021/01/07 09:17:41;;;;;;;29.48;15.40;;;;;;;2.67;79.63;100214.50;4991025;28;20494;-89
2021/01/07 09:20:22;;;;;;;34.90;16.65;;;;;;;2.62;79.90;100221.56;5004786;28;20065;-85
2021/01/07 09:23:00;;;;;;;33.22;16.70;;;;;;;2.56;79.37;100217.28;5002144;28;20077;-86
2021/01/07 09:25:28;;;;;;;36.15;17.10;;;;;;;2.52;79.75;100220.00;5001490;28;20073;-86
2021/01/07 09:27:56;;;;;;;31.40;15.95;;;;;;;2.51;80.46;100219.16;5011856;28;20126;-86
2021/01/07 09:30:25;;;;;;;31.05;15.75;;;;;;;2.59;80.22;100221.59;5010568;28;20030;-86
2021/01/07 09:32:53;;;;;;;30.75;15.82;;;;;;;2.64;80.00;100225.00;5013696;28;20589;-87
2021/01/07 09:35:21;;;;;;;32.22;15.65;;;;;;;2.65;78.98;100221.50;5009930;28;20052;-86
2021/01/07 09:37:58;;;;;;;34.22;16.02;;;;;;;2.60;79.88;100225.94;4998791;28;20073;-87
2021/01/07 09:40:25;;;;;;;32.75;16.92;;;;;;;2.56;79.99;100221.66;5002444;28;20060;-86
2021/01/07 09:43:08;;;;;;;31.67;15.30;;;;;;;2.64;80.50;100225.00;5002058;28;20182;-86
2021/01/07 09:45:38;;;;;;;34.45;15.63;;;;;;;2.71;79.87;100219.63;5004295;28;20358;-87
2021/01/07 09:48:04;;;;;;;32.85;16.35;;;;;;;2.79;79.86;100214.28;4999227;28;20129;-86
2021/01/07 09:50:32;;;;;;;28.67;15.63;;;;;;;2.87;79.74;100216.75;5002059;28;20072;-86
2021/01/07 09:53:01;;;;;;;34.80;15.60;;;;;;;2.87;79.59;100216.75;5004436;28;21119;-85
2021/01/07 09:55:27;;;;;;;31.00;16.48;;;;;;;2.90;80.00;100212.31;5013718;28;20042;-86
2021/01/07 09:57:56;;;;;;;35.08;16.73;;;;;;;2.97;78.68;100215.69;5006091;28;20103;-87
2021/01/07 10:00:24;;;;;;;32.80;16.27;;;;;;;3.07;78.98;100209.38;5011466;28;20097;-84
2021/01/07 10:02:55;;;;;;;31.80;15.77;;;;;;;3.07;77.93;100209.38;5013295;28;20096;-84
2021/01/07 10:05:21;;;;;;;28.77;14.63;;;;;;;3.08;77.77;100203.28;5012304;28;20047;-83
2021/01/07 10:07:48;;;;;;;29.35;15.18;;;;;;;3.10;77.89;100209.34;5009307;28;20111;-83
2021/01/07 10:10:14;;;;;;;33.80;16.48;;;;;;;3.15;77.98;100199.63;5009819;28;20070;-83
2021/01/07 10:12:41;;;;;;;33.38;15.88;;;;;;;3.16;78.50;100209.19;5008100;28;20050;-84
2021/01/07 10:15:08;;;;;;;34.97;17.25;;;;;;;3.16;78.15;100202.22;5007701;28;20116;-87
2021/01/07 10:17:38;;;;;;;31.08;16.17;;;;;;;3.09;78.87;100203.25;5013189;28;20046;-86
2021/01/07 10:20:09;;;;;;;37.88;17.45;;;;;;;3.09;77.86;100202.38;5017641;28;20050;-87
2021/01/07 10:22:38;;;;;;;35.25;15.60;;;;;;;3.05;77.68;100195.47;5004786;28;20076;-85
2021/01/07 10:25:07;;;;;;;31.40;16.75;;;;;;;2.99;77.47;100193.00;5005023;28;20054;-84
2021/01/07 10:27:40;;;;;;;29.50;16.30;;;;;;;3.03;77.34;100192.03;5010270;28;20081;-84
2021/01/07 10:30:07;;;;;;;22.90;11.90;;;;;;;3.01;77.41;100186.81;5007974;28;20046;-85
2021/01/07 10:32:36;;;;;;;28.65;15.02;;;;;;;3.08;76.81;100188.44;5001958;28;20094;-84
2021/01/07 10:35:04;;;;;;;29.00;15.13;;;;;;;3.08;77.12;100179.72;5007833;28;20060;-85
2021/01/07 10:37:32;;;;;;;29.35;14.68;;;;;;;3.12;76.92;100187.50;5008314;28;20045;-85
2021/01/07 10:40:02;;;;;;;28.23;14.60;;;;;;;3.20;76.28;100186.44;4999753;28;20038;-84
2021/01/07 10:42:28;;;;;;;26.58;13.80;;;;;;;3.25;75.40;100172.41;4996201;28;20052;-86
2021/01/07 10:44:58;;;;;;;26.45;14.20;;;;;;;3.26;75.10;100178.50;4998819;28;20049;-85
2021/01/07 10:47:29;;;;;;;26.52;14.32;;;;;;;3.31;75.35;100167.00;5000101;28;20080;-85
2021/01/07 10:49:57;;;;;;;;;;;;;;;3.34;74.82;100177.44;5003022;28;20389;-85
2021/01/07 10:52:33;;;;;;;24.77;12.75;;;;;;;3.39;75.10;100174.72;4997132;28;19922;-85
2021/01/07 10:55:24;;;;;;;26.92;14.07;;;;;;;3.47;73.12;100178.03;5011186;28;20056;-85
2021/01/07 10:58:17;;;;;;;23.10;13.27;;;;;;;3.44;74.19;100173.75;5000450;28;20153;-85
2021/01/07 11:01:06;;;;;;;26.77;13.02;;;;;;;3.42;73.72;100164.19;5019364;28;20052;-84
2021/01/07 11:04:08;;;;;;;25.83;13.70;;;;;;;3.39;73.57;100159.00;5011195;28;20102;-86
2021/01/07 11:06:48;;;;;;;27.63;14.15;;;;;;;3.29;74.03;100160.13;5000521;28;20081;-84
2021/01/07 11:09:17;;;;;;;24.33;12.20;;;;;;;3.28;74.00;100153.16;5003123;28;20073;-84
2021/01/07 11:11:57;;;;;;;25.42;14.38;;;;;;;3.35;73.50;100144.25;5003592;28;20062;-84
2021/01/07 11:15:04;;;;;;;23.30;12.48;;;;;;;3.46;72.76;100139.69;5012684;28;20061;-86
2021/01/07 11:17:34;;;;;;;27.02;12.50;;;;;;;3.47;72.48;100144.00;5009204;28;20039;-86
2021/01/07 11:20:07;;;;;;;25.77;14.00;;;;;;;3.46;72.42;100140.50;5011064;28;20052;-85
2021/01/07 11:22:35;;;;;;;27.58;13.70;;;;;;;3.44;72.31;100139.72;5009524;28;20050;-84
2021/01/07 11:25:04;;;;;;;25.98;14.05;;;;;;;3.64;75.45;100134.00;5015427;28;20054;-84
2021/01/07 11:27:33;;;;;;;23.83;13.48;;;;;;;3.53;72.98;100126.41;5009480;28;20062;-86
2021/01/07 11:30:03;;;;;;;26.17;13.60;;;;;;;3.55;73.54;100136.84;5014964;28;20034;-84
2021/01/07 11:32:36;;;;;;;24.10;12.75;;;;;;;3.59;72.07;100133.28;5011189;28;20031;-84